sensor_id;sensor_type;location;lat;lon;timestamp;pressure;altitude;pressure_sealevel;temperature;humidity
43741;BME280;29352;48.708;9.290;2022-09-09T00:04:41;97471.59;;;5.07;55.02
43741;BME280;29352;48.708;9.290;2022-09-09T00:07:21;97469.06;;;4.63;56.24
43741;BME280;29352;48.708;9.290;2022-09-09T00:13:14;97458.78;;;4.87;56.07
43741;BME280;29352;48.708;9.290;2022-09-09T00:16:08;97453.88;;;4.79;55.98
43741;BME280;29352;48.708;9.290;2022-09-09T00:21:37;97455.09;;;4.66;56.40
43741;BME280;29352;48.708;9.290;2022-09-09T00:24:19;97453.41;;;4.87;55.66
43741;BME280;29352;48.708;9.290;2022-09-09T00:27:00;97437.13;;;4.66;56.47
43741;BME280;29352;48.708;9.290;2022-09-09T00:29:47;97440.72;;;4.50;55.99
43741;BME280;29352;48.708;9.290;2022-09-09T00:32:20;97444.22;;;4.29;57.25
43741;BME280;29352;48.708;9.290;2022-09-09T00:35:34;97442.53;;;4.23;57.77
43741;BME280;29352;48.708;9.290;2022-09-09T00:37:37;97442.69;;;4.38;57.41
43741;BME280;29352;48.708;9.290;2022-09-09T00:40:22;97439.75;;;4.61;56.98
43741;BME280;29352;48.708;9.290;2022-09-09T00:43:30;97441.03;;;4.86;56.65
43741;BME280;29352;48.708;9.290;2022-09-09T00:46:20;97445.47;;;4.43;57.49
43741;BME280;29352;48.708;9.290;2022-09-09T00:49:15;97440.41;;;4.74;56.92
43741;BME280;29352;48.708;9.290;2022-09-09T00:52:14;97452.88;;;5.17;55.99
43741;BME280;29352;48.708;9.290;2022-09-09T00:57:50;97460.63;;;4.54;57.02
43741;BME280;29352;48.708;9.290;2022-09-09T01:05:35;97463.41;;;3.93;58.24
43741;BME280;29352;48.708;9.290;2022-09-09T01:20:02;97457.84;;;4.44;57.02
43741;BME280;29352;48.708;9.290;2022-09-09T01:26:07;97455.94;;;4.66;56.95
43741;BME280;29352;48.708;9.290;2022-09-09T01:28:48;97455.16;;;4.22;57.49
43741;BME280;29352;48.708;9.290;2022-09-09T01:31:26;97459.09;;;4.14;57.41
43741;BME280;29352;48.708;9.290;2022-09-09T01:33:56;97462.00;;;4.13;57.49
43741;BME280;29352;48.708;9.290;2022-09-09T01:36:29;97470.50;;;4.27;57.59
43741;BME280;29352;48.708;9.290;2022-09-09T01:39:03;97464.97;;;4.11;58.05
43741;BME280;29352;48.708;9.290;2022-09-09T01:41:29;97472.00;;;4.39;57.42
43741;BME280;29352;48.708;9.290;2022-09-09T01:43:56;97465.81;;;3.95;57.93
43741;BME280;29352;48.708;9.290;2022-09-09T01:46:24;97469.69;;;4.04;57.56
43741;BME280;29352;48.708;9.290;2022-09-09T01:48:52;97456.84;;;4.28;57.53
43741;BME280;29352;48.708;9.290;2022-09-09T01:51:20;97450.13;;;4.80;56.54
43741;BME280;29352;48.708;9.290;2022-09-09T01:53:46;97458.84;;;3.94;57.88
43741;BME280;29352;48.708;9.290;2022-09-09T02:04:45;97457.84;;;4.22;57.40
43741;BME280;29352;48.708;9.290;2022-09-09T02:10:29;97467.16;;;4.14;57.02
43741;BME280;29352;48.708;9.290;2022-09-09T02:13:08;97471.53;;;3.82;57.44
43741;BME280;29352;48.708;9.290;2022-09-09T02:15:58;97471.56;;;3.48;58.56
43741;BME280;29352;48.708;9.290;2022-09-09T02:18:38;97464.44;;;3.70;57.61
43741;BME280;29352;48.708;9.290;2022-09-09T02:21:13;97462.19;;;3.45;57.84
43741;BME280;29352;48.708;9.290;2022-09-09T02:23:43;97464.44;;;3.20;59.01
43741;BME280;29352;48.708;9.290;2022-09-09T02:26:13;97470.44;;;3.61;57.98
43741;BME280;29352;48.708;9.290;2022-09-09T02:28:46;97465.56;;;3.58;58.07
43741;BME280;29352;48.708;9.290;2022-09-09T02:31:18;97459.84;;;3.88;57.13
43741;BME280;29352;48.708;9.290;2022-09-09T02:33:52;97459.13;;;3.76;57.41
43741;BME280;29352;48.708;9.290;2022-09-09T02:36:25;97460.84;;;3.48;57.44
43741;BME280;29352;48.708;9.290;2022-09-09T02:38:55;97463.16;;;3.06;58.68
43741;BME280;29352;48.708;9.290;2022-09-09T02:41:32;97461.44;;;3.50;58.45
43741;BME280;29352;48.708;9.290;2022-09-09T02:44:00;97461.41;;;3.84;57.71
43741;BME280;29352;48.708;9.290;2022-09-09T02:46:41;97455.41;;;3.77;57.24
43741;BME280;29352;48.708;9.290;2022-09-09T02:49:19;97460.06;;;3.31;58.35
43741;BME280;29352;48.708;9.290;2022-09-09T02:52:07;97453.25;;;3.40;58.15
43741;BME280;29352;48.708;9.290;2022-09-09T02:54:38;97469.00;;;3.19;58.38
43741;BME280;29352;48.708;9.290;2022-09-09T02:59:43;97467.06;;;3.32;57.65
43741;BME280;29352;48.708;9.290;2022-09-09T03:02:10;97463.69;;;3.58;56.90
43741;BME280;29352;48.708;9.290;2022-09-09T03:04:37;97469.06;;;3.41;57.69
43741;BME280;29352;48.708;9.290;2022-09-09T03:07:03;97462.66;;;3.25;58.38
43741;BME280;29352;48.708;9.290;2022-09-09T03:09:30;97467.53;;;3.29;57.42
43741;BME280;29352;48.708;9.290;2022-09-09T03:11:56;97460.69;;;3.55;57.26
43741;BME280;29352;48.708;9.290;2022-09-09T03:14:22;97465.25;;;3.37;57.67
43741;BME280;29352;48.708;9.290;2022-09-09T03:16:51;97470.06;;;3.18;58.51
43741;BME280;29352;48.708;9.290;2022-09-09T03:19:18;97465.75;;;3.34;59.76
43741;BME280;29352;48.708;9.290;2022-09-09T03:21:47;97462.19;;;3.84;58.13
43741;BME280;29352;48.708;9.290;2022-09-09T03:24:13;97471.13;;;3.17;58.82
43741;BME280;29352;48.708;9.290;2022-09-09T03:26:40;97474.03;;;2.99;58.97
43741;BME280;29352;48.708;9.290;2022-09-09T03:29:07;97485.09;;;1.93;60.88
43741;BME280;29352;48.708;9.290;2022-09-09T03:31:33;97477.56;;;2.88;59.10
43741;BME280;29352;48.708;9.290;2022-09-09T03:34:01;97474.59;;;3.01;59.39
43741;BME280;29352;48.708;9.290;2022-09-09T03:36:26;97479.38;;;2.99;59.70
43741;BME280;29352;48.708;9.290;2022-09-09T03:38:53;97479.38;;;2.99;59.78
43741;BME280;29352;48.708;9.290;2022-09-09T03:41:23;97474.28;;;2.97;59.59
43741;BME280;29352;48.708;9.290;2022-09-09T03:43:50;97471.94;;;3.01;59.81
43741;BME280;29352;48.708;9.290;2022-09-09T03:46:17;97474.75;;;4.01;57.99
43741;BME280;29352;48.708;9.290;2022-09-09T03:48:43;97467.94;;;4.15;57.29
43741;BME280;29352;48.708;9.290;2022-09-09T03:51:09;97458.56;;;4.17;57.33
43741;BME280;29352;48.708;9.290;2022-09-09T03:53:36;97464.25;;;3.99;57.82
43741;BME280;29352;48.708;9.290;2022-09-09T03:56:04;97464.47;;;3.76;58.09
43741;BME280;29352;48.708;9.290;2022-09-09T03:58:33;97467.16;;;2.17;61.13
43741;BME280;29352;48.708;9.290;2022-09-09T04:01:03;97467.44;;;1.80;62.66
43741;BME280;29352;48.708;9.290;2022-09-09T04:03:31;97459.25;;;2.96;60.35
43741;BME280;29352;48.708;9.290;2022-09-09T04:05:59;97467.50;;;2.49;61.16
43741;BME280;29352;48.708;9.290;2022-09-09T04:08:27;97467.00;;;1.36;63.74
43741;BME280;29352;48.708;9.290;2022-09-09T04:10:53;97471.63;;;1.76;63.29
43741;BME280;29352;48.708;9.290;2022-09-09T04:15:51;97465.56;;;3.41;59.16
43741;BME280;29352;48.708;9.290;2022-09-09T04:18:19;97472.00;;;3.40;58.94
43741;BME280;29352;48.708;9.290;2022-09-09T04:20:47;97468.84;;;3.43;59.02
43741;BME280;29352;48.708;9.290;2022-09-09T04:23:13;97469.63;;;3.43;59.06
43741;BME280;29352;48.708;9.290;2022-09-09T04:25:44;97474.66;;;3.57;58.55
43741;BME280;29352;48.708;9.290;2022-09-09T04:28:12;97469.97;;;3.13;59.75
43741;BME280;29352;48.708;9.290;2022-09-09T04:30:39;97469.81;;;3.37;58.90
43741;BME280;29352;48.708;9.290;2022-09-09T04:33:05;97473.28;;;3.20;59.17
43741;BME280;29352;48.708;9.290;2022-09-09T04:35:31;97470.88;;;3.36;59.06
43741;BME280;29352;48.708;9.290;2022-09-09T04:37:58;97474.34;;;3.70;57.97
43741;BME280;29352;48.708;9.290;2022-09-09T04:40:23;97468.88;;;4.04;57.41
43741;BME280;29352;48.708;9.290;2022-09-09T04:42:51;97461.22;;;4.12;57.65
43741;BME280;29352;48.708;9.290;2022-09-09T04:45:17;97466.44;;;4.02;57.50
43741;BME280;29352;48.708;9.290;2022-09-09T04:47:43;97474.19;;;3.77;58.58
43741;BME280;29352;48.708;9.290;2022-09-09T04:50:09;97470.50;;;4.27;57.74
43741;BME280;29352;48.708;9.290;2022-09-09T04:52:35;97479.84;;;3.63;59.03
43741;BME280;29352;48.708;9.290;2022-09-09T04:55:01;97473.75;;;3.51;58.76
43741;BME280;29352;48.708;9.290;2022-09-09T04:57:27;97459.31;;;3.52;59.06
43741;BME280;29352;48.708;9.290;2022-09-09T04:59:53;97463.63;;;3.53;59.07
43741;BME280;29352;48.708;9.290;2022-09-09T05:02:19;97466.97;;;3.43;59.06
43741;BME280;29352;48.708;9.290;2022-09-09T05:04:45;97470.03;;;3.69;58.49
43741;BME280;29352;48.708;9.290;2022-09-09T05:07:10;97466.81;;;3.89;58.28
43741;BME280;29352;48.708;9.290;2022-09-09T05:09:36;97466.19;;;4.26;57.44
43741;BME280;29352;48.708;9.290;2022-09-09T05:12:01;97478.03;;;4.30;57.21
43741;BME280;29352;48.708;9.290;2022-09-09T05:14:28;97478.91;;;4.13;57.69
43741;BME280;29352;48.708;9.290;2022-09-09T05:16:55;97484.03;;;4.59;56.92
43741;BME280;29352;48.708;9.290;2022-09-09T05:19:21;97488.25;;;4.77;56.64
43741;BME280;29352;48.708;9.290;2022-09-09T05:21:47;97484.50;;;5.37;55.83
43741;BME280;29352;48.708;9.290;2022-09-09T05:24:12;97481.28;;;5.40;56.32
43741;BME280;29352;48.708;9.290;2022-09-09T05:26:38;97488.31;;;5.46;56.07
43741;BME280;29352;48.708;9.290;2022-09-09T05:29:03;97485.59;;;6.46;53.10
43741;BME280;29352;48.708;9.290;2022-09-09T05:31:30;97484.66;;;7.60;51.47
43741;BME280;29352;48.708;9.290;2022-09-09T05:33:56;97476.69;;;8.19;50.88
43741;BME280;29352;48.708;9.290;2022-09-09T05:36:22;97490.03;;;7.80;51.73
43741;BME280;29352;48.708;9.290;2022-09-09T05:38:49;97484.41;;;7.51;51.77
43741;BME280;29352;48.708;9.290;2022-09-09T05:41:16;97486.69;;;8.74;50.53
43741;BME280;29352;48.708;9.290;2022-09-09T05:43:43;97490.09;;;8.45;51.52
43741;BME280;29352;48.708;9.290;2022-09-09T05:46:20;97492.91;;;8.74;51.96
43741;BME280;29352;48.708;9.290;2022-09-09T05:48:48;97495.94;;;9.99;49.12
43741;BME280;29352;48.708;9.290;2022-09-09T05:51:23;97495.25;;;9.89;49.19
43741;BME280;29352;48.708;9.290;2022-09-09T05:53:51;97495.66;;;11.24;47.06
43741;BME280;29352;48.708;9.290;2022-09-09T05:56:24;97505.38;;;9.78;48.74
43741;BME280;29352;48.708;9.290;2022-09-09T05:58:53;97508.84;;;9.20;49.20
43741;BME280;29352;48.708;9.290;2022-09-09T06:01:27;97503.16;;;8.12;50.69
43741;BME280;29352;48.708;9.290;2022-09-09T06:03:54;97500.22;;;9.13;49.38
43741;BME280;29352;48.708;9.290;2022-09-09T06:06:23;97494.03;;;8.68;50.39
43741;BME280;29352;48.708;9.290;2022-09-09T06:08:56;97495.16;;;7.87;51.99
43741;BME280;29352;48.708;9.290;2022-09-09T06:11:30;97498.78;;;8.32;50.94
43741;BME280;29352;48.708;9.290;2022-09-09T06:13:57;97502.41;;;8.02;51.86
43741;BME280;29352;48.708;9.290;2022-09-09T06:16:25;97497.84;;;7.87;51.23
43741;BME280;29352;48.708;9.290;2022-09-09T06:18:56;97492.72;;;8.60;50.11
43741;BME280;29352;48.708;9.290;2022-09-09T06:21:49;97489.88;;;8.31;51.14
43741;BME280;29352;48.708;9.290;2022-09-09T06:24:15;97490.34;;;8.49;50.95
43741;BME280;29352;48.708;9.290;2022-09-09T06:26:42;97504.06;;;6.95;53.66
43741;BME280;29352;48.708;9.290;2022-09-09T06:29:08;97504.88;;;7.01;54.19
43741;BME280;29352;48.708;9.290;2022-09-09T06:31:36;97494.94;;;7.27;53.40
43741;BME280;29352;48.708;9.290;2022-09-09T06:34:05;97493.88;;;7.33;55.20
43741;BME280;29352;48.708;9.290;2022-09-09T06:36:34;97490.41;;;8.38;52.14
43741;BME280;29352;48.708;9.290;2022-09-09T06:39:02;97500.44;;;8.28;52.58
43741;BME280;29352;48.708;9.290;2022-09-09T06:41:31;97500.56;;;6.95;55.24
43741;BME280;29352;48.708;9.290;2022-09-09T06:43:58;97503.03;;;7.47;54.67
43741;BME280;29352;48.708;9.290;2022-09-09T06:46:27;97501.88;;;7.94;53.39
43741;BME280;29352;48.708;9.290;2022-09-09T06:48:56;97505.25;;;8.41;52.89
43741;BME280;29352;48.708;9.290;2022-09-09T06:51:24;97499.25;;;8.54;52.05
43741;BME280;29352;48.708;9.290;2022-09-09T06:53:53;97495.34;;;8.71;52.09
43741;BME280;29352;48.708;9.290;2022-09-09T06:56:31;97501.31;;;9.17;51.74
43741;BME280;29352;48.708;9.290;2022-09-09T06:59:00;97499.84;;;9.30;51.25
43741;BME280;29352;48.708;9.290;2022-09-09T07:01:33;97508.66;;;9.41;50.33
43741;BME280;29352;48.708;9.290;2022-09-09T07:04:01;97505.31;;;10.74;48.90
43741;BME280;29352;48.708;9.290;2022-09-09T07:06:32;97499.63;;;12.34;46.06
43741;BME280;29352;48.708;9.290;2022-09-09T07:09:10;97498.97;;;13.37;45.27
43741;BME280;29352;48.708;9.290;2022-09-09T07:11:43;97494.59;;;13.81;44.99
43741;BME280;29352;48.708;9.290;2022-09-09T07:14:11;97500.56;;;12.79;45.77
43741;BME280;29352;48.708;9.290;2022-09-09T07:16:43;97492.16;;;13.79;44.10
43741;BME280;29352;48.708;9.290;2022-09-09T07:19:11;97502.19;;;14.50;43.00
43741;BME280;29352;48.708;9.290;2022-09-09T07:21:38;97500.28;;;13.40;45.31
43741;BME280;29352;48.708;9.290;2022-09-09T07:24:05;97506.88;;;11.97;46.30
43741;BME280;29352;48.708;9.290;2022-09-09T07:26:33;97507.50;;;12.35;45.59
43741;BME280;29352;48.708;9.290;2022-09-09T07:28:58;97516.09;;;11.36;47.77
43741;BME280;29352;48.708;9.290;2022-09-09T07:31:30;97491.34;;;11.70;46.54
43741;BME280;29352;48.708;9.290;2022-09-09T07:34:00;97486.94;;;11.74;47.57
43741;BME280;29352;48.708;9.290;2022-09-09T07:36:29;97491.50;;;10.32;48.55
43741;BME280;29352;48.708;9.290;2022-09-09T07:39:04;97485.06;;;12.43;46.00
43741;BME280;29352;48.708;9.290;2022-09-09T07:41:37;97495.50;;;12.36;46.48
43741;BME280;29352;48.708;9.290;2022-09-09T07:44:16;97505.19;;;12.15;46.58
43741;BME280;29352;48.708;9.290;2022-09-09T07:46:46;97499.69;;;12.84;45.36
43741;BME280;29352;48.708;9.290;2022-09-09T07:49:13;97488.41;;;13.67;44.32
43741;BME280;29352;48.708;9.290;2022-09-09T07:51:42;97497.13;;;13.24;44.78
43741;BME280;29352;48.708;9.290;2022-09-09T07:54:11;97506.41;;;16.46;41.49
43741;BME280;29352;48.708;9.290;2022-09-09T07:56:41;97504.66;;;16.41;40.94
43741;BME280;29352;48.708;9.290;2022-09-09T07:59:08;97515.13;;;17.31;40.91
43741;BME280;29352;48.708;9.290;2022-09-09T08:01:49;97521.72;;;17.30;39.67
43741;BME280;29352;48.708;9.290;2022-09-09T08:04:21;97511.78;;;17.26;39.63
43741;BME280;29352;48.708;9.290;2022-09-09T08:06:59;97507.44;;;18.16;38.90
43741;BME280;29352;48.708;9.290;2022-09-09T08:09:27;97505.50;;;18.41;38.53
43741;BME280;29352;48.708;9.290;2022-09-09T08:11:57;97520.38;;;17.03;39.32
43741;BME280;29352;48.708;9.290;2022-09-09T08:14:24;97521.50;;;15.75;41.15
43741;BME280;29352;48.708;9.290;2022-09-09T08:16:50;97513.22;;;16.01;40.87
43741;BME280;29352;48.708;9.290;2022-09-09T08:19:16;97515.38;;;16.55;40.01
43741;BME280;29352;48.708;9.290;2022-09-09T08:21:43;97510.47;;;16.90;39.65
43741;BME280;29352;48.708;9.290;2022-09-09T08:24:11;97508.47;;;18.11;38.75
43741;BME280;29352;48.708;9.290;2022-09-09T08:26:42;97503.44;;;18.38;38.01
43741;BME280;29352;48.708;9.290;2022-09-09T08:29:11;97515.91;;;15.63;40.70
43741;BME280;29352;48.708;9.290;2022-09-09T08:34:08;97523.81;;;15.21;41.43
43741;BME280;29352;48.708;9.290;2022-09-09T08:36:38;97510.84;;;16.59;40.37
43741;BME280;29352;48.708;9.290;2022-09-09T08:39:10;97512.97;;;16.74;40.17
43741;BME280;29352;48.708;9.290;2022-09-09T08:50:22;97508.97;;;15.65;41.56
43741;BME280;29352;48.708;9.290;2022-09-09T08:58:28;97523.81;;;18.37;37.84
43741;BME280;29352;48.708;9.290;2022-09-09T09:04:06;97524.94;;;16.90;39.66
43741;BME280;29352;48.708;9.290;2022-09-09T09:12:44;97514.31;;;17.64;38.96
43741;BME280;29352;48.708;9.290;2022-09-09T09:15:23;97493.28;;;18.26;37.32
43741;BME280;29352;48.708;9.290;2022-09-09T09:17:50;97497.16;;;18.49;37.84
43741;BME280;29352;48.708;9.290;2022-09-09T09:20:25;97514.44;;;17.68;38.67
43741;BME280;29352;48.708;9.290;2022-09-09T09:23:03;97503.56;;;18.04;38.12
43741;BME280;29352;48.708;9.290;2022-09-09T09:25:39;97503.44;;;18.25;37.40
43741;BME280;29352;48.708;9.290;2022-09-09T09:28:26;97508.59;;;18.15;37.12
43741;BME280;29352;48.708;9.290;2022-09-09T09:31:04;97512.28;;;16.86;38.29
43741;BME280;29352;48.708;9.290;2022-09-09T09:33:46;97505.97;;;17.27;38.61
43741;BME280;29352;48.708;9.290;2022-09-09T09:36:15;97519.22;;;18.16;38.03
43741;BME280;29352;48.708;9.290;2022-09-09T09:38:57;97523.88;;;15.77;38.03
43741;BME280;29352;48.708;9.290;2022-09-09T09:41:30;97532.63;;;13.95;37.49
43741;BME280;29352;48.708;9.290;2022-09-09T09:43:58;97520.59;;;12.83;39.06
43741;BME280;29352;48.708;9.290;2022-09-09T09:46:25;97511.31;;;13.66;37.95
43741;BME280;29352;48.708;9.290;2022-09-09T09:49:02;97506.59;;;13.49;38.88
43741;BME280;29352;48.708;9.290;2022-09-09T09:51:32;97495.75;;;15.76;36.33
43741;BME280;29352;48.708;9.290;2022-09-09T09:56:44;97491.31;;;16.39;35.29
43741;BME280;29352;48.708;9.290;2022-09-09T09:59:32;97481.59;;;16.93;35.26
43741;BME280;29352;48.708;9.290;2022-09-09T10:02:22;97485.34;;;17.09;34.51
43741;BME280;29352;48.708;9.290;2022-09-09T10:05:02;97474.97;;;17.35;34.70
43741;BME280;29352;48.708;9.290;2022-09-09T10:07:30;97468.00;;;18.45;33.93
43741;BME280;29352;48.708;9.290;2022-09-09T10:09:58;97478.41;;;16.90;35.64
43741;BME280;29352;48.708;9.290;2022-09-09T10:15:31;97482.06;;;14.86;37.36
43741;BME280;29352;48.708;9.290;2022-09-09T10:33:04;97460.13;;;14.25;39.15
43741;BME280;29352;48.708;9.290;2022-09-09T10:36:16;97460.38;;;13.12;40.85
43741;BME280;29352;48.708;9.290;2022-09-09T10:45:05;97438.75;;;15.66;39.15
43741;BME280;29352;48.708;9.290;2022-09-09T10:50:42;97451.44;;;14.14;40.43
43741;BME280;29352;48.708;9.290;2022-09-09T10:53:32;97448.34;;;14.73;39.70
43741;BME280;29352;48.708;9.290;2022-09-09T10:56:12;97432.69;;;15.90;38.37
43741;BME280;29352;48.708;9.290;2022-09-09T10:59:02;97428.06;;;15.82;37.64
43741;BME280;29352;48.708;9.290;2022-09-09T11:04:42;97430.34;;;17.35;38.04
43741;BME280;29352;48.708;9.290;2022-09-09T11:07:33;97421.50;;;16.33;40.42
43741;BME280;29352;48.708;9.290;2022-09-09T11:10:17;97420.13;;;18.30;35.36
43741;BME280;29352;48.708;9.290;2022-09-09T11:12:49;97420.41;;;17.43;35.26
43741;BME280;29352;48.708;9.290;2022-09-09T11:18:01;97436.00;;;15.10;36.51
43741;BME280;29352;48.708;9.290;2022-09-09T11:20:29;97444.16;;;14.84;37.70
43741;BME280;29352;48.708;9.290;2022-09-09T11:23:12;97441.88;;;14.43;37.46
43741;BME280;29352;48.708;9.290;2022-09-09T11:25:51;97438.81;;;12.80;38.60
43741;BME280;29352;48.708;9.290;2022-09-09T11:28:28;97448.53;;;11.34;41.36
43741;BME280;29352;48.708;9.290;2022-09-09T11:31:20;97466.81;;;11.75;44.93
43741;BME280;29352;48.708;9.290;2022-09-09T11:39:44;97515.09;;;10.32;52.16
43741;BME280;29352;48.708;9.290;2022-09-09T11:42:22;97508.53;;;9.56;53.91
43741;BME280;29352;48.708;9.290;2022-09-09T11:44:50;97508.97;;;9.68;52.54
43741;BME280;29352;48.708;9.290;2022-09-09T11:47:28;97508.63;;;9.11;52.99
43741;BME280;29352;48.708;9.290;2022-09-09T11:52:45;97495.03;;;10.76;51.36
43741;BME280;29352;48.708;9.290;2022-09-09T11:55:30;97494.41;;;10.79;49.92
43741;BME280;29352;48.708;9.290;2022-09-09T12:00:43;97485.91;;;10.86;47.61
43741;BME280;29352;48.708;9.290;2022-09-09T12:03:41;97487.06;;;11.17;46.09
43741;BME280;29352;48.708;9.290;2022-09-09T12:06:19;97495.22;;;10.98;47.18
43741;BME280;29352;48.708;9.290;2022-09-09T12:09:13;97505.31;;;10.74;46.41
43741;BME280;29352;48.708;9.290;2022-09-09T12:11:51;97502.88;;;10.72;44.26
43741;BME280;29352;48.708;9.290;2022-09-09T12:14:35;97491.34;;;11.56;44.36
43741;BME280;29352;48.708;9.290;2022-09-09T12:17:23;97497.22;;;11.44;44.33
43741;BME280;29352;48.708;9.290;2022-09-09T12:20:03;97490.25;;;11.71;43.34
43741;BME280;29352;48.708;9.290;2022-09-09T12:23:14;97481.34;;;12.12;42.49
43741;BME280;29352;48.708;9.290;2022-09-09T12:25:58;97488.91;;;12.42;42.15
43741;BME280;29352;48.708;9.290;2022-09-09T12:29:01;97479.41;;;12.54;41.41
43741;BME280;29352;48.708;9.290;2022-09-09T12:34:42;97455.13;;;14.10;40.16
43741;BME280;29352;48.708;9.290;2022-09-09T12:40:24;97454.25;;;14.49;39.09
43741;BME280;29352;48.708;9.290;2022-09-09T12:43:01;97459.16;;;14.21;39.16
43741;BME280;29352;48.708;9.290;2022-09-09T12:45:42;97447.91;;;13.43;39.35
43741;BME280;29352;48.708;9.290;2022-09-09T12:48:11;97449.66;;;14.01;39.40
43741;BME280;29352;48.708;9.290;2022-09-09T12:50:46;97446.81;;;13.75;39.29
43741;BME280;29352;48.708;9.290;2022-09-09T12:53:29;97460.00;;;12.69;40.24
43741;BME280;29352;48.708;9.290;2022-09-09T12:56:03;97451.09;;;12.91;39.78
43741;BME280;29352;48.708;9.290;2022-09-09T12:58:32;97448.19;;;12.87;40.98
43741;BME280;29352;48.708;9.290;2022-09-09T13:01:01;97453.69;;;12.96;40.55
43741;BME280;29352;48.708;9.290;2022-09-09T13:03:32;97447.38;;;12.51;40.64
43741;BME280;29352;48.708;9.290;2022-09-09T13:06:18;97449.19;;;12.55;41.17
43741;BME280;29352;48.708;9.290;2022-09-09T13:08:48;97448.72;;;12.76;40.78
43741;BME280;29352;48.708;9.290;2022-09-09T13:11:22;97443.28;;;12.76;40.89
43741;BME280;29352;48.708;9.290;2022-09-09T13:13:55;97442.03;;;12.96;40.52
43741;BME280;29352;48.708;9.290;2022-09-09T13:16:28;97441.06;;;12.41;40.77
43741;BME280;29352;48.708;9.290;2022-09-09T13:18:58;97433.50;;;12.25;39.48
43741;BME280;29352;48.708;9.290;2022-09-09T13:21:34;97441.47;;;12.21;40.58
43741;BME280;29352;48.708;9.290;2022-09-09T13:24:04;97443.38;;;11.79;40.11
43741;BME280;29352;48.708;9.290;2022-09-09T13:26:33;97432.13;;;12.00;39.66
43741;BME280;29352;48.708;9.290;2022-09-09T13:29:19;97433.84;;;11.95;39.51
43741;BME280;29352;48.708;9.290;2022-09-09T13:31:46;97432.78;;;12.83;38.92
43741;BME280;29352;48.708;9.290;2022-09-09T13:34:30;97429.75;;;13.29;38.84
43741;BME280;29352;48.708;9.290;2022-09-09T13:37:05;97425.94;;;13.39;38.84
43741;BME280;29352;48.708;9.290;2022-09-09T13:39:52;97423.84;;;13.58;38.51
43741;BME280;29352;48.708;9.290;2022-09-09T13:42:37;97421.72;;;13.95;37.91
43741;BME280;29352;48.708;9.290;2022-09-09T13:45:18;97427.66;;;14.54;38.19
43741;BME280;29352;48.708;9.290;2022-09-09T13:47:46;97415.13;;;14.79;37.96
43741;BME280;29352;48.708;9.290;2022-09-09T13:50:26;97422.34;;;13.92;38.44
43741;BME280;29352;48.708;9.290;2022-09-09T13:52:57;97422.00;;;12.55;40.17
43741;BME280;29352;48.708;9.290;2022-09-09T13:55:28;97410.25;;;14.07;39.32
43741;BME280;29352;48.708;9.290;2022-09-09T13:57:57;97420.03;;;14.17;39.47
43741;BME280;29352;48.708;9.290;2022-09-09T14:00:33;97420.50;;;14.19;39.45
43741;BME280;29352;48.708;9.290;2022-09-09T14:02:59;97419.72;;;14.36;39.77
43741;BME280;29352;48.708;9.290;2022-09-09T14:05:28;97410.69;;;14.00;39.53
43741;BME280;29352;48.708;9.290;2022-09-09T14:07:57;97422.19;;;14.63;39.60
43741;BME280;29352;48.708;9.290;2022-09-09T14:10:23;97405.34;;;13.78;38.63
43741;BME280;29352;48.708;9.290;2022-09-09T14:12:48;97415.09;;;13.79;38.27
43741;BME280;29352;48.708;9.290;2022-09-09T14:15:14;97423.91;;;14.16;38.05
43741;BME280;29352;48.708;9.290;2022-09-09T14:17:40;97411.03;;;14.07;38.56
43741;BME280;29352;48.708;9.290;2022-09-09T14:20:07;97404.53;;;13.86;38.42
43741;BME280;29352;48.708;9.290;2022-09-09T14:22:34;97407.66;;;13.53;39.54
43741;BME280;29352;48.708;9.290;2022-09-09T14:25:00;97413.84;;;13.85;38.41
43741;BME280;29352;48.708;9.290;2022-09-09T14:27:25;97412.38;;;12.72;39.45
43741;BME280;29352;48.708;9.290;2022-09-09T14:29:51;97415.13;;;13.48;38.72
43741;BME280;29352;48.708;9.290;2022-09-09T14:32:17;97411.47;;;13.92;38.07
43741;BME280;29352;48.708;9.290;2022-09-09T14:34:43;97408.41;;;13.85;38.44
43741;BME280;29352;48.708;9.290;2022-09-09T14:37:08;97408.19;;;14.13;38.51
43741;BME280;29352;48.708;9.290;2022-09-09T14:39:34;97411.03;;;13.59;38.73
43741;BME280;29352;48.708;9.290;2022-09-09T14:41:59;97406.25;;;13.42;38.58
43741;BME280;29352;48.708;9.290;2022-09-09T14:44:24;97414.41;;;13.11;38.53
43741;BME280;29352;48.708;9.290;2022-09-09T14:46:50;97406.31;;;13.20;37.92
43741;BME280;29352;48.708;9.290;2022-09-09T14:49:16;97414.66;;;12.78;38.01
43741;BME280;29352;48.708;9.290;2022-09-09T14:51:41;97400.44;;;12.81;36.89
43741;BME280;29352;48.708;9.290;2022-09-09T14:54:07;97420.16;;;12.64;37.24
43741;BME280;29352;48.708;9.290;2022-09-09T14:56:34;97412.63;;;12.84;36.99
43741;BME280;29352;48.708;9.290;2022-09-09T14:59:00;97410.03;;;12.79;37.50
43741;BME280;29352;48.708;9.290;2022-09-09T15:01:26;97411.19;;;13.63;36.55
43741;BME280;29352;48.708;9.290;2022-09-09T15:03:58;97409.69;;;13.48;36.40
43741;BME280;29352;48.708;9.290;2022-09-09T15:06:27;97408.38;;;13.45;36.81
43741;BME280;29352;48.708;9.290;2022-09-09T15:08:57;97414.59;;;13.46;36.69
43741;BME280;29352;48.708;9.290;2022-09-09T15:11:34;97416.97;;;12.85;37.34
43741;BME280;29352;48.708;9.290;2022-09-09T15:14:07;97409.41;;;13.04;37.46
43741;BME280;29352;48.708;9.290;2022-09-09T15:16:34;97413.16;;;13.40;36.87
43741;BME280;29352;48.708;9.290;2022-09-09T15:19:01;97413.31;;;13.12;37.39
43741;BME280;29352;48.708;9.290;2022-09-09T15:21:31;97415.00;;;12.99;37.65
43741;BME280;29352;48.708;9.290;2022-09-09T15:23:58;97403.72;;;13.14;36.98
43741;BME280;29352;48.708;9.290;2022-09-09T15:26:25;97399.84;;;13.38;37.44
43741;BME280;29352;48.708;9.290;2022-09-09T15:28:51;97405.25;;;14.00;37.19
43741;BME280;29352;48.708;9.290;2022-09-09T15:31:20;97402.72;;;14.13;37.62
43741;BME280;29352;48.708;9.290;2022-09-09T15:33:55;97401.59;;;13.65;37.74
43741;BME280;29352;48.708;9.290;2022-09-09T15:36:33;97402.66;;;13.95;37.91
43741;BME280;29352;48.708;9.290;2022-09-09T15:39:03;97392.19;;;13.40;38.24
43741;BME280;29352;48.708;9.290;2022-09-09T15:41:31;97390.97;;;13.55;38.01